createdAt,value
2017-03-02T00:01:09.761Z,986.67
2017-03-02T00:02:19.573Z,986.63
2017-03-02T00:03:28.895Z,986.59
2017-03-02T00:04:38.644Z,986.54
2017-03-02T00:05:48.388Z,986.54
2017-03-02T00:06:59.029Z,986.49
2017-03-02T00:08:09.731Z,986.49
2017-03-02T00:09:19.924Z,986.48
2017-03-02T00:10:29.285Z,986.45
2017-03-02T00:11:39.909Z,986.41
2017-03-02T00:12:50.120Z,986.38
2017-03-02T00:14:00.402Z,986.37
2017-03-02T00:15:10.164Z,986.32
2017-03-02T00:16:21.275Z,986.32
2017-03-02T00:17:31.026Z,986.28
2017-03-02T00:18:40.809Z,986.29
2017-03-02T00:19:50.601Z,986.27
2017-03-02T00:21:01.223Z,986.23
2017-03-02T00:22:10.971Z,986.2
2017-03-02T00:23:21.150Z,986.16
2017-03-02T00:24:30.481Z,986.22
2017-03-02T00:25:41.174Z,986.18
2017-03-02T00:26:51.804Z,986.21
2017-03-02T00:28:01.574Z,986.18
2017-03-02T00:29:11.318Z,986.14
2017-03-02T00:30:21.507Z,986.16
2017-03-02T00:31:32.180Z,986.16
2017-03-02T00:32:41.943Z,986.2
2017-03-02T00:33:51.716Z,986.16
2017-03-02T00:35:01.459Z,986.13
2017-03-02T00:36:11.650Z,986.1
2017-03-02T00:37:22.760Z,986.08
2017-03-02T00:38:32.953Z,986.06
2017-03-02T00:39:43.134Z,986.05
2017-03-02T00:40:53.318Z,986.03
2017-03-02T00:42:02.640Z,986.02
2017-03-02T00:43:12.884Z,985.99
2017-03-02T00:44:23.514Z,985.96
2017-03-02T00:45:33.282Z,985.95
2017-03-02T00:46:43.497Z,985.89
2017-03-02T00:47:52.813Z,985.86
2017-03-02T00:51:27.963Z,985.85
2017-03-02T00:52:38.945Z,985.85
2017-03-02T00:53:49.915Z,985.82
2017-03-02T00:55:00.083Z,985.83
2017-03-02T00:56:11.181Z,985.8
2017-03-02T00:57:20.960Z,985.77
2017-03-02T00:58:31.182Z,985.82
2017-03-02T00:59:41.385Z,985.78
2017-03-02T01:00:52.265Z,985.75
2017-03-02T01:02:02.464Z,985.73
2017-03-02T01:03:11.774Z,985.67
2017-03-02T01:04:22.833Z,985.67
2017-03-02T01:05:33.019Z,985.64
2017-03-02T01:06:42.883Z,985.67
2017-03-02T01:07:53.509Z,985.6
2017-03-02T01:09:03.733Z,985.59
2017-03-02T01:10:13.502Z,985.53
2017-03-02T01:11:23.717Z,985.5
2017-03-02T01:12:34.405Z,985.51
2017-03-02T01:13:44.159Z,985.52
2017-03-02T01:14:53.921Z,985.5
2017-03-02T01:16:03.250Z,985.5
2017-03-02T01:17:12.573Z,985.44
2017-03-02T01:18:23.680Z,985.43
2017-03-02T01:19:33.444Z,985.4
2017-03-02T01:20:43.685Z,985.37
2017-03-02T01:21:53.888Z,985.34
2017-03-02T01:23:04.077Z,985.26
2017-03-02T01:24:13.430Z,985.31
2017-03-02T01:25:24.062Z,985.26
2017-03-02T01:26:34.703Z,985.28
2017-03-02T01:27:45.338Z,985.26
2017-03-02T01:28:55.514Z,985.21
2017-03-02T01:30:05.961Z,985.17
2017-03-02T01:31:16.151Z,985.2
2017-03-02T01:32:25.911Z,985.19
2017-03-02T01:33:36.112Z,985.15
2017-03-02T01:34:45.874Z,985.1
2017-03-02T01:35:56.546Z,985.07
2017-03-02T01:37:06.732Z,985.04
2017-03-02T01:38:16.953Z,985.02
2017-03-02T01:39:26.716Z,985.07
2017-03-02T01:40:36.474Z,985.01
2017-03-02T01:41:47.147Z,984.98
2017-03-02T01:42:57.342Z,985.01
2017-03-02T01:44:07.093Z,985.01
2017-03-02T01:45:17.723Z,984.99
2017-03-02T01:46:28.373Z,985
2017-03-02T01:47:38.193Z,984.97
2017-03-02T01:48:48.388Z,984.99
2017-03-02T01:49:57.697Z,984.95
2017-03-02T01:51:08.340Z,984.88
2017-03-02T01:52:18.098Z,984.91
2017-03-02T01:53:29.367Z,984.89
2017-03-02T01:54:40.443Z,984.86
2017-03-02T01:55:51.955Z,984.87
2017-03-02T01:57:01.263Z,984.89
2017-03-02T01:58:11.901Z,984.81
2017-03-02T01:59:22.661Z,984.8
2017-03-02T02:00:32.448Z,984.85
2017-03-02T02:01:42.649Z,984.82
2017-03-02T02:02:51.966Z,984.79
2017-03-02T02:04:02.602Z,984.78
2017-03-02T02:05:12.857Z,984.77
2017-03-02T02:06:22.214Z,984.65
2017-03-02T02:07:32.409Z,984.66
2017-03-02T02:08:43.473Z,984.67
2017-03-02T02:09:53.235Z,984.67
2017-03-02T02:11:02.614Z,984.65
2017-03-02T02:12:13.251Z,984.63
2017-03-02T02:13:24.321Z,984.63
2017-03-02T02:14:34.071Z,984.59
2017-03-02T02:15:43.816Z,984.63
2017-03-02T02:16:53.613Z,984.65
2017-03-02T02:18:04.245Z,984.61
2017-03-02T02:19:13.566Z,984.7
2017-03-02T02:20:24.652Z,984.67
2017-03-02T02:21:34.438Z,984.64
2017-03-02T02:22:43.810Z,984.67
2017-03-02T02:23:54.892Z,984.64
2017-03-02T02:25:04.250Z,984.6
2017-03-02T02:26:13.583Z,984.62
2017-03-02T02:27:23.785Z,984.61
2017-03-02T02:28:33.373Z,984.59
2017-03-02T02:29:42.689Z,984.6
2017-03-02T02:30:53.316Z,984.63
2017-03-02T02:32:03.081Z,984.57
2017-03-02T02:33:12.390Z,984.54
2017-03-02T02:34:22.223Z,984.57
2017-03-02T02:35:31.557Z,984.54
2017-03-02T02:36:42.212Z,984.55
2017-03-02T02:37:52.840Z,984.56
2017-03-02T02:39:02.596Z,984.57
2017-03-02T02:40:12.834Z,984.6
2017-03-02T02:41:22.589Z,984.58
2017-03-02T02:42:32.794Z,984.57
2017-03-02T02:43:43.438Z,984.54
2017-03-02T02:44:53.642Z,984.65
2017-03-02T02:46:03.008Z,984.67
2017-03-02T02:47:12.339Z,984.66
2017-03-02T02:48:22.990Z,984.66
2017-03-02T02:49:32.735Z,984.7
2017-03-02T02:50:42.057Z,984.69
2017-03-02T02:51:52.304Z,984.72
2017-03-02T02:53:02.091Z,984.71
2017-03-02T02:54:11.904Z,984.71
2017-03-02T02:55:21.226Z,984.74
2017-03-02T02:56:30.985Z,984.69
2017-03-02T02:57:41.222Z,984.7
2017-03-02T02:58:50.973Z,984.64
2017-03-02T03:00:00.754Z,984.63
2017-03-02T03:01:10.547Z,984.61
2017-03-02T03:02:20.289Z,984.69
2017-03-02T03:03:30.112Z,984.7
2017-03-02T03:04:39.868Z,984.7
2017-03-02T03:05:50.111Z,984.73
2017-03-02T03:06:59.426Z,984.76
2017-03-02T03:08:08.747Z,984.76
2017-03-02T03:09:18.558Z,984.79
2017-03-02T03:10:29.189Z,984.78
2017-03-02T03:11:38.525Z,984.79
2017-03-02T03:12:47.886Z,984.79
2017-03-02T03:13:58.093Z,984.82
2017-03-02T03:15:07.913Z,984.83
2017-03-02T03:16:17.684Z,984.83
2017-03-02T03:17:28.312Z,984.82
2017-03-02T03:18:38.081Z,984.82
2017-03-02T03:19:47.822Z,984.79
2017-03-02T03:20:57.180Z,984.79
2017-03-02T03:22:06.967Z,984.8
2017-03-02T03:23:17.158Z,984.78
2017-03-02T03:24:27.339Z,984.76
2017-03-02T03:25:36.691Z,984.75
2017-03-02T03:26:46.584Z,984.75
2017-03-02T03:27:56.782Z,984.81
2017-03-02T03:29:06.983Z,984.83
2017-03-02T03:30:16.734Z,984.83
2017-03-02T03:31:26.079Z,984.82
2017-03-02T03:32:35.919Z,984.77
2017-03-02T03:33:45.692Z,984.8
2017-03-02T03:34:55.446Z,984.86
2017-03-02T03:36:05.216Z,984.87
2017-03-02T03:37:14.557Z,984.89
2017-03-02T03:38:23.943Z,984.92
2017-03-02T03:39:33.739Z,984.95
2017-03-02T03:40:43.928Z,984.89
2017-03-02T03:41:53.270Z,984.95
2017-03-02T03:43:02.589Z,984.88
2017-03-02T03:44:12.396Z,984.87
2017-03-02T03:45:22.167Z,984.88
2017-03-02T03:46:31.489Z,984.83
2017-03-02T03:47:41.696Z,984.88
2017-03-02T03:48:51.460Z,984.9
2017-03-02T03:50:01.282Z,984.88
2017-03-02T03:51:11.487Z,984.96
2017-03-02T03:52:21.708Z,984.97
2017-03-02T03:53:31.920Z,984.96
2017-03-02T03:54:41.663Z,984.99
2017-03-02T03:55:51.512Z,985.04
2017-03-02T03:57:00.835Z,985
2017-03-02T03:58:10.602Z,985.01
2017-03-02T03:59:20.368Z,985.03
2017-03-02T04:00:30.125Z,984.98
2017-03-02T04:01:40.396Z,985
2017-03-02T04:02:50.174Z,985
2017-03-02T04:04:00.360Z,984.96
2017-03-02T04:05:10.547Z,985.01
2017-03-02T04:06:20.745Z,985.04
2017-03-02T04:07:30.552Z,985.09
2017-03-02T04:08:40.768Z,985.12
2017-03-02T04:09:50.548Z,985.11
2017-03-02T04:11:00.327Z,985.07
2017-03-02T04:12:10.548Z,985.08
2017-03-02T04:13:20.784Z,985.07
2017-03-02T04:14:30.571Z,985.09
2017-03-02T04:15:40.328Z,985.1
2017-03-02T04:16:50.505Z,985.07
2017-03-02T04:17:59.821Z,985.06
2017-03-02T04:19:09.195Z,985.07
2017-03-02T04:20:18.547Z,985.12
2017-03-02T04:21:28.733Z,985.22
2017-03-02T04:22:38.950Z,985.16
2017-03-02T04:23:48.723Z,985.16
2017-03-02T04:24:58.963Z,985.1
2017-03-02T04:26:09.624Z,985.13
2017-03-02T04:27:19.397Z,985.08
2017-03-02T04:28:29.579Z,985.09
2017-03-02T04:29:39.349Z,985.09
2017-03-02T04:30:49.152Z,985.12
2017-03-02T04:31:58.455Z,985.12
2017-03-02T04:33:07.789Z,985.11
2017-03-02T04:34:17.576Z,985.1
2017-03-02T04:35:27.350Z,985.15
2017-03-02T04:36:37.583Z,985.14
2017-03-02T04:37:47.377Z,985.14
2017-03-02T04:38:57.133Z,985.14
2017-03-02T04:40:06.454Z,985.11
2017-03-02T04:41:16.651Z,985.08
2017-03-02T04:42:26.468Z,985.11
2017-03-02T04:43:36.664Z,985.04
2017-03-02T04:44:46.863Z,985.05
2017-03-02T04:45:56.179Z,985.08
2017-03-02T04:47:06.825Z,985.05
2017-03-02T04:48:16.192Z,985.02
2017-03-02T04:49:26.416Z,985.03
2017-03-02T04:50:36.167Z,984.99
2017-03-02T04:51:45.914Z,985.06
2017-03-02T04:52:56.150Z,985.06
2017-03-02T04:54:06.389Z,985.07
2017-03-02T04:55:16.162Z,985.06
2017-03-02T04:56:25.506Z,985.05
2017-03-02T04:57:35.269Z,985.03
2017-03-02T04:58:45.017Z,985
2017-03-02T04:59:54.417Z,984.97
2017-03-02T05:01:04.174Z,985.04
2017-03-02T05:02:14.368Z,985.01
2017-03-02T05:03:24.577Z,985
2017-03-02T05:04:35.204Z,984.99
2017-03-02T05:05:45.452Z,984.96
2017-03-02T05:06:55.634Z,985
2017-03-02T05:08:04.954Z,984.97
2017-03-02T05:09:14.728Z,984.98
2017-03-02T05:10:24.498Z,984.96
2017-03-02T05:11:34.850Z,984.97
2017-03-02T05:12:44.651Z,984.98
2017-03-02T05:13:55.300Z,984.98
2017-03-02T05:15:05.063Z,985.07
2017-03-02T05:16:14.846Z,985.02
2017-03-02T05:17:24.640Z,985.03
2017-03-02T05:18:34.429Z,985.08
2017-03-02T05:19:44.626Z,985.06
2017-03-02T05:20:54.408Z,985.11
2017-03-02T05:22:04.150Z,985.13
2017-03-02T05:23:13.971Z,985.18
2017-03-02T05:24:23.726Z,985.25
2017-03-02T05:25:33.041Z,985.37
2017-03-02T05:26:42.369Z,985.44
2017-03-02T05:27:52.562Z,985.74
2017-03-02T05:29:02.451Z,985.35
2017-03-02T05:30:12.654Z,985.45
2017-03-02T05:31:22.011Z,985.49
2017-03-02T05:32:31.755Z,985.8
2017-03-02T05:33:41.533Z,985.77
2017-03-02T05:34:51.331Z,985.68
2017-03-02T05:36:01.540Z,985.57
2017-03-02T05:37:10.851Z,985.69
2017-03-02T05:38:21.487Z,985.45
2017-03-02T05:39:31.695Z,985.56
2017-03-02T05:40:41.528Z,985.47
2017-03-02T05:41:50.890Z,985.28
2017-03-02T05:43:00.643Z,985.38
2017-03-02T05:44:09.968Z,985.41
2017-03-02T05:45:19.733Z,985.44
2017-03-02T05:46:29.099Z,985.42
2017-03-02T05:47:38.443Z,985.42
2017-03-02T05:48:48.652Z,985.44
2017-03-02T05:49:59.726Z,985.44
2017-03-02T05:51:09.063Z,985.44
2017-03-02T05:52:18.439Z,985.47
2017-03-02T05:53:28.633Z,985.54
2017-03-02T05:54:38.390Z,985.41
2017-03-02T05:55:48.133Z,985.4
2017-03-02T05:56:57.453Z,985.48
2017-03-02T05:58:07.288Z,985.48
2017-03-02T05:59:16.632Z,985.47
2017-03-02T06:00:26.395Z,985.6
2017-03-02T06:01:36.173Z,985.5
2017-03-02T06:02:46.370Z,985.54
2017-03-02T06:03:56.177Z,985.5
2017-03-02T06:05:05.942Z,985.54
2017-03-02T06:06:15.263Z,985.54
2017-03-02T06:07:24.612Z,985.61
2017-03-02T06:08:34.393Z,985.56
2017-03-02T06:09:44.279Z,985.58
2017-03-02T06:10:54.023Z,985.63
2017-03-02T06:12:04.225Z,985.62
2017-03-02T06:13:13.997Z,985.63
2017-03-02T06:14:23.319Z,985.69
2017-03-02T06:15:32.699Z,985.67
2017-03-02T06:16:42.918Z,985.78
2017-03-02T06:17:52.695Z,985.9
2017-03-02T06:19:02.900Z,985.84
2017-03-02T06:20:12.229Z,986.02
2017-03-02T06:21:22.034Z,985.98
2017-03-02T06:22:32.224Z,985.91
2017-03-02T06:23:41.987Z,985.95
2017-03-02T06:24:52.626Z,985.9
2017-03-02T06:26:02.923Z,985.87
2017-03-02T06:27:12.716Z,986.14
2017-03-02T06:28:22.485Z,986.06
2017-03-02T06:29:32.251Z,986.07
2017-03-02T06:30:41.562Z,986.1
2017-03-02T06:31:52.193Z,986
2017-03-02T06:33:01.986Z,985.99
2017-03-02T06:34:11.303Z,986.03
2017-03-02T06:35:21.521Z,986.07
2017-03-02T06:36:31.288Z,986.04
2017-03-02T06:37:41.074Z,986.11
2017-03-02T06:38:50.884Z,986.03
2017-03-02T06:40:00.645Z,986.12
2017-03-02T06:41:10.868Z,986.09
2017-03-02T06:42:20.648Z,986.15
2017-03-02T06:43:30.885Z,986.09
2017-03-02T06:44:40.682Z,986.08
2017-03-02T06:45:50.882Z,986.1
2017-03-02T06:47:01.777Z,986.33
2017-03-02T06:48:11.107Z,986.18
2017-03-02T06:49:20.862Z,986.15
2017-03-02T06:50:30.688Z,986.23
2017-03-02T06:51:40.881Z,986.21
2017-03-02T06:52:50.651Z,986.16
2017-03-02T06:54:00.426Z,986.14
2017-03-02T06:55:10.175Z,986.15
2017-03-02T06:56:19.981Z,986.26
2017-03-02T06:57:29.776Z,986.32
2017-03-02T06:58:39.540Z,986.22
2017-03-02T06:59:48.877Z,986.29
2017-03-02T07:00:59.648Z,986.11
2017-03-02T07:02:09.656Z,986.29
2017-03-02T07:03:20.231Z,986.35
2017-03-02T07:04:30.701Z,986.47
2017-03-02T07:05:41.122Z,986.32
2017-03-02T07:06:51.324Z,986.68
2017-03-02T07:08:01.567Z,986.77
2017-03-02T07:09:12.222Z,986.7
2017-03-02T07:10:21.995Z,986.96
2017-03-02T07:11:31.307Z,986.9
2017-03-02T07:12:41.614Z,986.98
2017-03-02T07:13:52.525Z,986.87
2017-03-02T07:15:03.767Z,986.89
2017-03-02T07:16:14.916Z,986.95
2017-03-02T07:17:24.656Z,986.91
2017-03-02T07:18:35.366Z,987.07
2017-03-02T07:19:45.587Z,987.1
2017-03-02T07:20:58.776Z,987.16
2017-03-02T07:22:09.874Z,987.09
2017-03-02T07:23:20.264Z,987.2
2017-03-02T07:24:31.512Z,987.24
2017-03-02T07:25:42.374Z,987.3
2017-03-02T07:26:52.351Z,987.29
2017-03-02T07:28:01.685Z,987.37
2017-03-02T07:29:11.574Z,987.54
2017-03-02T07:30:21.503Z,987.26
2017-03-02T07:31:31.789Z,987.33
2017-03-02T07:32:41.113Z,987.3
2017-03-02T07:33:50.558Z,987.45
2017-03-02T07:35:00.419Z,987.38
2017-03-02T07:36:09.733Z,987.42
2017-03-02T07:37:19.438Z,987.41
2017-03-02T07:38:29.105Z,987.3
2017-03-02T07:39:38.945Z,987.41
2017-03-02T07:40:48.566Z,987.43
2017-03-02T07:41:58.802Z,987.47
2017-03-02T07:43:09.442Z,987.44
2017-03-02T07:44:20.669Z,987.53
2017-03-02T07:45:31.089Z,987.58
2017-03-02T07:46:44.121Z,987.67
2017-03-02T07:47:55.774Z,987.7
2017-03-02T07:49:06.689Z,987.61
2017-03-02T07:50:16.258Z,987.74
2017-03-02T07:51:26.384Z,987.67
2017-03-02T07:52:38.265Z,987.89
2017-03-02T07:53:48.996Z,987.85
2017-03-02T07:54:59.734Z,987.97
2017-03-02T07:56:10.126Z,987.83
2017-03-02T07:57:19.805Z,988.01
2017-03-02T07:58:29.962Z,987.67
2017-03-02T07:59:40.076Z,987.94
2017-03-02T08:00:52.303Z,987.74
2017-03-02T08:02:04.356Z,987.7
2017-03-02T08:03:18.202Z,987.91
2017-03-02T08:04:30.924Z,987.87
2017-03-02T08:05:45.162Z,987.94
2017-03-02T08:06:58.495Z,987.87
2017-03-02T08:08:11.008Z,987.91
2017-03-02T08:09:20.789Z,987.83
2017-03-02T08:10:30.599Z,987.99
2017-03-02T08:11:39.960Z,987.87
2017-03-02T08:12:49.708Z,987.83
2017-03-02T08:13:59.466Z,988.09
2017-03-02T08:15:09.695Z,987.88
2017-03-02T08:16:19.915Z,988.08
2017-03-02T08:17:29.294Z,988.06
2017-03-02T08:18:39.064Z,988.16
2017-03-02T08:19:49.280Z,988.08
2017-03-02T08:20:59.893Z,988.33
2017-03-02T08:22:09.525Z,988.1
2017-03-02T08:23:19.872Z,988.2
2017-03-02T08:24:30.377Z,988.18
2017-03-02T08:25:40.558Z,988.31
2017-03-02T08:26:52.199Z,988.31
2017-03-02T08:28:01.749Z,988.32
2017-03-02T08:29:12.037Z,988.34
2017-03-02T08:30:21.815Z,988.46
2017-03-02T08:31:32.008Z,988.46
2017-03-02T08:32:41.340Z,988.31
2017-03-02T08:33:51.977Z,988.27
2017-03-02T08:35:01.794Z,988.45
2017-03-02T08:36:11.127Z,988.45
2017-03-02T08:37:20.909Z,988.39
2017-03-02T08:38:31.414Z,988.46
2017-03-02T08:39:40.733Z,988.46
2017-03-02T08:40:50.286Z,988.46
2017-03-02T08:41:59.627Z,988.53
2017-03-02T08:43:09.516Z,988.43
2017-03-02T08:44:19.809Z,988.48
2017-03-02T08:45:30.262Z,988.58
2017-03-02T08:46:42.272Z,988.6
2017-03-02T08:47:52.251Z,988.81
2017-03-02T08:49:02.447Z,988.7
2017-03-02T08:50:12.645Z,988.45
2017-03-02T08:51:22.711Z,988.47
2017-03-02T08:52:32.509Z,988.6
2017-03-02T08:53:42.079Z,988.47
2017-03-02T08:54:51.394Z,988.59
2017-03-02T08:56:01.157Z,988.54
2017-03-02T08:57:10.926Z,988.63
2017-03-02T08:58:21.155Z,988.64
2017-03-02T08:59:30.624Z,988.59
2017-03-02T09:00:40.385Z,988.53
2017-03-02T09:01:50.476Z,988.49
2017-03-02T09:03:00.232Z,988.45
2017-03-02T09:04:11.531Z,988.52
2017-03-02T09:05:21.061Z,988.48
2017-03-02T09:06:30.942Z,988.57
2017-03-02T09:07:41.235Z,988.56
2017-03-02T09:08:51.438Z,988.6
2017-03-02T09:10:00.819Z,988.69
2017-03-02T09:11:10.699Z,988.68
2017-03-02T09:12:20.548Z,988.76
2017-03-02T09:13:30.299Z,988.78
2017-03-02T09:14:41.076Z,988.81
2017-03-02T09:15:51.584Z,988.87
2017-03-02T09:17:01.769Z,988.88
2017-03-02T09:18:12.508Z,988.77
2017-03-02T09:19:22.252Z,988.69
2017-03-02T09:20:32.208Z,988.82
2017-03-02T09:21:42.106Z,988.82
2017-03-02T09:22:51.860Z,988.72
2017-03-02T09:24:02.536Z,988.72
2017-03-02T09:25:13.191Z,988.94
2017-03-02T09:26:22.960Z,988.82
2017-03-02T09:27:33.185Z,988.95
2017-03-02T09:28:42.950Z,988.91
2017-03-02T09:29:53.234Z,988.98
2017-03-02T09:31:03.155Z,988.96
2017-03-02T09:32:12.925Z,989.11
2017-03-02T09:33:22.571Z,988.85
2017-03-02T09:34:33.071Z,988.99
2017-03-02T09:35:43.264Z,988.89
2017-03-02T09:36:53.283Z,988.96
2017-03-02T09:38:03.032Z,989.04
2017-03-02T09:39:12.413Z,988.9
2017-03-02T09:40:22.154Z,989.02
2017-03-02T09:41:32.351Z,989.04
2017-03-02T09:42:41.667Z,989.08
2017-03-02T09:43:51.853Z,989.13
2017-03-02T09:45:01.425Z,989.28
2017-03-02T09:46:10.818Z,989.25
2017-03-02T09:47:20.636Z,989.41
2017-03-02T09:48:30.697Z,989.38
2017-03-02T09:49:40.802Z,989.54
2017-03-02T09:50:50.845Z,989.66
2017-03-02T09:52:00.613Z,989.8
2017-03-02T09:53:11.715Z,990.18
2017-03-02T09:54:21.037Z,990.23
2017-03-02T09:55:31.670Z,990.12
2017-03-02T09:56:41.474Z,990.1
2017-03-02T09:57:50.800Z,990.3
2017-03-02T09:59:00.553Z,990.24
2017-03-02T10:00:10.729Z,990.29
2017-03-02T10:01:20.952Z,990.25
2017-03-02T10:02:31.197Z,990.25
2017-03-02T10:03:41.402Z,990.4
2017-03-02T10:04:50.709Z,990.45
2017-03-02T10:06:00.473Z,990.28
2017-03-02T10:07:09.801Z,990.47
2017-03-02T10:08:19.622Z,990.45
2017-03-02T10:09:28.932Z,990.52
2017-03-02T10:10:38.829Z,990.34
2017-03-02T10:11:49.034Z,990.58
2017-03-02T10:12:58.361Z,990.47
2017-03-02T10:14:08.207Z,990.61
2017-03-02T10:15:17.965Z,990.65
2017-03-02T10:16:27.746Z,990.71
2017-03-02T10:17:38.391Z,990.68
2017-03-02T10:18:49.448Z,990.68
2017-03-02T10:19:59.703Z,990.83
2017-03-02T10:21:09.963Z,990.74
2017-03-02T10:22:20.806Z,990.81
2017-03-02T10:23:30.145Z,990.71
2017-03-02T10:24:40.118Z,990.7
2017-03-02T10:25:51.091Z,990.78
2017-03-02T10:27:00.924Z,990.96
2017-03-02T10:28:10.674Z,990.88
2017-03-02T10:29:21.303Z,990.88
2017-03-02T10:30:31.969Z,990.88
2017-03-02T10:31:41.479Z,990.77
2017-03-02T10:32:51.232Z,990.99
2017-03-02T10:34:00.561Z,990.94
2017-03-02T10:35:10.578Z,990.98
2017-03-02T10:36:21.550Z,991
2017-03-02T10:37:31.365Z,990.89
2017-03-02T10:38:41.138Z,991.13
2017-03-02T10:39:50.450Z,991.03
2017-03-02T10:41:00.352Z,991.08
2017-03-02T10:42:10.660Z,991.14
2017-03-02T10:43:20.087Z,991.23
2017-03-02T10:44:29.860Z,991.21
2017-03-02T10:45:39.186Z,991.33
2017-03-02T10:46:48.687Z,991.38
2017-03-02T10:47:58.020Z,991.38
2017-03-02T10:49:07.625Z,991.3
2017-03-02T10:50:17.810Z,991.42
2017-03-02T10:51:27.561Z,991.48
2017-03-02T10:52:36.887Z,991.37
2017-03-02T10:53:47.513Z,991.35
2017-03-02T10:54:57.499Z,991.47
2017-03-02T10:56:06.817Z,991.44
2017-03-02T10:57:16.568Z,991.57
2017-03-02T10:58:27.629Z,991.52
2017-03-02T10:59:44.200Z,991.54
2017-03-02T11:01:05.738Z,991.58
2017-03-02T11:02:25.280Z,991.55
2017-03-02T11:03:42.524Z,991.65
2017-03-02T11:05:00.034Z,991.66
2017-03-02T11:06:16.152Z,991.59
2017-03-02T11:07:26.792Z,991.58
2017-03-02T11:08:36.753Z,991.63
2017-03-02T11:09:48.695Z,991.62
2017-03-02T11:10:58.602Z,991.69
2017-03-02T11:12:08.789Z,991.72
2017-03-02T11:13:18.106Z,991.7
2017-03-02T11:14:27.457Z,991.75
2017-03-02T11:15:37.671Z,991.89
2017-03-02T11:16:47.939Z,991.87
2017-03-02T11:17:58.574Z,992.01
2017-03-02T11:19:08.752Z,991.88
2017-03-02T11:20:18.520Z,991.9
2017-03-02T11:21:28.265Z,992.02
2017-03-02T11:22:38.078Z,991.92
2017-03-02T11:23:48.709Z,991.94
2017-03-02T11:24:58.029Z,992
2017-03-02T11:26:09.123Z,992.08
2017-03-02T11:27:18.895Z,992.03
2017-03-02T11:28:28.768Z,992.04
2017-03-02T11:29:38.746Z,992.21
2017-03-02T11:30:49.882Z,992.15
2017-03-02T11:32:02.036Z,992.15
2017-03-02T11:33:13.027Z,992.1
2017-03-02T11:34:24.541Z,992.22
2017-03-02T11:35:36.763Z,992.18
2017-03-02T11:36:46.989Z,992.34
2017-03-02T11:37:56.315Z,992.26
2017-03-02T11:39:06.943Z,992.19
2017-03-02T11:40:16.761Z,992.32
2017-03-02T11:41:26.514Z,992.37
2017-03-02T11:42:36.725Z,992.33
2017-03-02T11:43:46.037Z,992.41
2017-03-02T11:44:55.805Z,992.54
2017-03-02T11:46:06.520Z,992.43
2017-03-02T11:47:15.848Z,992.45
2017-03-02T11:48:26.230Z,992.5
2017-03-02T11:49:36.440Z,992.62
2017-03-02T11:50:45.757Z,992.72
2017-03-02T11:51:55.129Z,992.64
2017-03-02T11:53:05.036Z,992.81
2017-03-02T11:54:14.590Z,992.73
2017-03-02T11:55:24.537Z,992.76
2017-03-02T11:56:34.746Z,992.7
2017-03-02T11:57:44.538Z,992.77
2017-03-02T11:58:54.299Z,992.73
2017-03-02T12:00:03.911Z,992.88
2017-03-02T12:01:13.979Z,992.91
2017-03-02T12:02:23.524Z,992.98
2017-03-02T12:03:34.271Z,992.9
2017-03-02T12:04:45.417Z,992.88
2017-03-02T12:05:55.604Z,992.99
2017-03-02T12:07:04.921Z,993.04
2017-03-02T12:08:15.131Z,993.06
2017-03-02T12:09:24.815Z,992.99
2017-03-02T12:10:35.004Z,993.15
2017-03-02T12:11:45.196Z,993
2017-03-02T12:12:55.423Z,993.11
2017-03-02T12:14:05.197Z,993.13
2017-03-02T12:15:15.190Z,993.08
2017-03-02T12:16:25.383Z,993.14
2017-03-02T12:17:34.711Z,993.2
2017-03-02T12:18:44.472Z,993.13
2017-03-02T12:19:54.245Z,993.21
2017-03-02T12:21:04.590Z,993.23
2017-03-02T12:22:14.363Z,993.19
2017-03-02T12:23:24.146Z,993.27
2017-03-02T12:24:33.471Z,993.32
2017-03-02T12:25:43.687Z,993.35
2017-03-02T12:26:53.945Z,993.33
2017-03-02T12:28:03.250Z,993.33
2017-03-02T12:29:13.035Z,993.31
2017-03-02T12:30:23.241Z,993.35
2017-03-02T12:31:32.990Z,993.39
2017-03-02T12:32:42.808Z,993.37
2017-03-02T12:33:52.554Z,993.45
2017-03-02T12:35:01.885Z,993.46
2017-03-02T12:36:12.079Z,993.41
2017-03-02T12:37:21.412Z,993.48
2017-03-02T12:38:30.775Z,993.5
2017-03-02T12:39:40.970Z,993.53
2017-03-02T12:40:50.300Z,993.56
2017-03-02T12:41:59.621Z,993.5
2017-03-02T12:43:09.366Z,993.55
2017-03-02T12:44:19.627Z,993.62
2017-03-02T12:45:29.380Z,993.63
2017-03-02T12:46:39.146Z,993.59
2017-03-02T12:47:48.467Z,993.71
2017-03-02T12:48:58.274Z,993.62
2017-03-02T12:50:08.083Z,993.7
2017-03-02T12:51:18.718Z,993.68
2017-03-02T12:52:28.502Z,993.78
2017-03-02T12:53:38.260Z,993.8
2017-03-02T12:54:48.051Z,993.78
2017-03-02T12:55:57.873Z,993.86
2017-03-02T12:57:07.647Z,993.93
2017-03-02T12:58:18.328Z,993.86
2017-03-02T12:59:28.077Z,993.82
2017-03-02T13:00:37.827Z,993.96
2017-03-02T13:01:47.625Z,993.96
2017-03-02T13:02:57.369Z,993.96
2017-03-02T13:04:06.686Z,994.03
2017-03-02T13:05:16.876Z,994.08
2017-03-02T13:06:26.613Z,993.96
2017-03-02T13:07:35.995Z,994.03
2017-03-02T13:08:45.759Z,993.97
2017-03-02T13:09:55.969Z,994.09
2017-03-02T13:11:05.289Z,994.18
2017-03-02T13:12:15.057Z,994.18
2017-03-02T13:13:25.343Z,994.11
2017-03-02T13:14:35.088Z,994.21
2017-03-02T13:15:44.835Z,994.12
2017-03-02T13:16:54.208Z,994.28
2017-03-02T13:18:03.997Z,994.37
2017-03-02T13:19:13.809Z,994.44
2017-03-02T13:20:23.574Z,994.38
2017-03-02T13:21:32.887Z,994.46
2017-03-02T13:22:43.093Z,994.46
2017-03-02T13:23:52.430Z,994.45
2017-03-02T13:25:01.824Z,994.47
2017-03-02T13:26:11.157Z,994.56
2017-03-02T13:27:20.489Z,994.58
2017-03-02T13:28:30.694Z,994.52
2017-03-02T13:29:40.896Z,994.6
2017-03-02T13:30:50.694Z,994.64
2017-03-02T13:32:00.890Z,994.6
2017-03-02T13:33:10.662Z,994.63
2017-03-02T13:34:20.865Z,994.67
2017-03-02T13:35:30.618Z,994.62
2017-03-02T13:36:40.427Z,994.7
2017-03-02T13:37:50.218Z,994.77
2017-03-02T13:39:00.876Z,994.81
2017-03-02T13:40:10.663Z,994.81
2017-03-02T13:41:19.990Z,994.88
2017-03-02T13:42:29.813Z,994.78
2017-03-02T13:43:39.145Z,994.89
2017-03-02T13:44:48.923Z,994.94
2017-03-02T13:45:58.692Z,994.96
2017-03-02T13:47:08.893Z,995.01
2017-03-02T13:48:18.715Z,995.01
2017-03-02T13:49:28.463Z,995.15
2017-03-02T13:50:37.773Z,995.07
2017-03-02T13:51:47.098Z,995.09
2017-03-02T13:52:57.281Z,995.17
2017-03-02T13:54:07.548Z,995.12
2017-03-02T13:55:17.337Z,995.15
2017-03-02T13:56:27.103Z,995.14
2017-03-02T13:57:36.912Z,995.28
2017-03-02T13:58:46.233Z,995.27
2017-03-02T13:59:55.594Z,995.29
2017-03-02T14:01:04.928Z,995.34
2017-03-02T14:02:15.124Z,995.37
2017-03-02T14:03:24.448Z,995.43
2017-03-02T14:04:34.631Z,995.51
2017-03-02T14:05:44.011Z,995.5
2017-03-02T14:06:53.784Z,995.5
2017-03-02T14:08:03.530Z,995.51
2017-03-02T14:09:13.276Z,995.56
2017-03-02T14:10:22.595Z,995.59
2017-03-02T14:11:33.026Z,995.59
2017-03-02T14:12:42.355Z,995.61
2017-03-02T14:13:51.660Z,995.68
2017-03-02T14:15:00.989Z,995.67
2017-03-02T14:16:11.610Z,995.69
2017-03-02T14:17:21.430Z,995.81
2017-03-02T14:18:31.213Z,995.74
2017-03-02T14:19:41.412Z,995.83
2017-03-02T14:20:51.607Z,995.82
2017-03-02T14:22:01.800Z,995.82
2017-03-02T14:23:11.181Z,995.85
2017-03-02T14:24:21.439Z,995.84
2017-03-02T14:25:31.221Z,995.84
2017-03-02T14:26:41.425Z,995.8
2017-03-02T14:27:51.178Z,995.89
2017-03-02T14:29:01.435Z,995.97
2017-03-02T14:30:11.196Z,995.96
2017-03-02T14:31:20.525Z,995.99
2017-03-02T14:32:31.159Z,995.98
2017-03-02T14:33:40.934Z,996
2017-03-02T14:34:51.212Z,996.01
2017-03-02T14:36:01.444Z,996.17
2017-03-02T14:37:10.764Z,996.15
2017-03-02T14:38:20.085Z,996.11
2017-03-02T14:39:29.422Z,996.12
2017-03-02T14:40:39.231Z,996.2